Time;durP1;ratioP1;P1;durP2;ratioP2;P2;SDS_P1;SDS_P2;PMS_P1;PMS_P2;Temp;Humidity;BMP_temperature;BMP_pressure;BME280_temperature;BME280_humidity;BME280_pressure;Samples;Min_cycle;Max_cycle;Signal;HPM_P1;HPM_P2
2023/12/30 00:01:50;;;;;;;20.52;5.03;;;10.40;99.90;;;10.52;75.83;100793.16;4804339;29;20051;-77
2023/12/30 00:04:19;;;;;;;14.45;5.07;;;10.40;99.90;;;10.54;75.92;100786.97;4804196;29;20050;-77
2023/12/30 00:06:49;;;;;;;15.27;4.68;;;10.40;99.90;;;10.57;75.79;100797.53;4804253;29;20125;-77
2023/12/30 00:09:17;;;;;;;18.70;4.55;;;10.40;99.90;;;10.56;76.03;100786.97;4803966;29;20078;-77
2023/12/30 00:11:46;;;;;;;14.50;4.78;;;10.40;99.90;;;10.47;76.01;100781.72;4803899;29;20051;-77
2023/12/30 00:14:14;;;;;;;13.38;4.70;;;10.40;99.90;;;10.46;76.05;100790.53;4803850;29;20047;-77
2023/12/30 00:16:42;;;;;;;20.23;4.82;;;10.30;99.90;;;10.52;76.30;100791.41;4803820;29;20046;-77
2023/12/30 00:19:12;;;;;;;17.90;4.70;;;10.30;99.90;;;10.47;76.63;100801.09;4804223;29;20111;-77
2023/12/30 00:21:41;;;;;;;21.50;4.93;;;10.30;99.90;;;10.48;75.89;100776.44;4803754;29;20050;-77
2023/12/30 00:24:11;;;;;;;12.00;4.30;;;10.30;99.90;;;10.50;75.47;100795.81;4803753;29;20057;-77
2023/12/30 00:26:39;;;;;;;11.25;4.38;;;10.40;99.90;;;10.50;75.39;100797.56;4803635;29;20084;-77
2023/12/30 00:29:11;;;;;;;13.40;4.55;;;10.40;99.90;;;10.52;75.49;100798.44;4803829;29;20063;-77
2023/12/30 00:31:40;;;;;;;16.42;4.75;;;10.40;99.90;;;10.63;75.77;100794.84;4803657;29;20512;-77
2023/12/30 00:34:08;;;;;;;13.10;4.57;;;10.40;99.90;;;10.65;75.44;100801.00;4803722;29;20507;-77
2023/12/30 00:36:43;;;;;;;17.75;5.25;;;10.50;99.90;;;10.70;75.87;100808.94;4802436;29;20059;-77
2023/12/30 00:39:13;;;;;;;11.23;4.80;;;10.50;99.90;;;10.67;76.08;100809.81;4803525;29;20101;-77
2023/12/30 00:41:41;;;;;;;15.73;5.18;;;10.50;99.90;;;10.70;75.96;100808.94;4804041;29;20055;-77
2023/12/30 00:44:10;;;;;;;14.38;4.70;;;10.50;99.90;;;10.68;76.21;100811.56;4817650;29;20082;-77
2023/12/30 00:46:39;;;;;;;13.65;5.15;;;10.50;99.90;;;10.65;76.52;100813.34;4817762;29;20116;-77
2023/12/30 00:49:08;;;;;;;19.42;5.47;;;10.50;99.90;;;10.61;75.82;100804.56;4803765;29;20062;-77
2023/12/30 00:51:38;;;;;;;18.25;5.60;;;10.50;99.90;;;10.66;75.99;100823.94;4803526;29;20054;-77
2023/12/30 00:54:06;;;;;;;15.15;5.00;;;10.50;99.90;;;10.59;76.19;100823.94;4803419;29;20043;-77
2023/12/30 00:56:36;;;;;;;13.85;4.60;;;10.40;99.90;;;10.57;76.37;100821.31;4803521;29;20041;-77
2023/12/30 00:59:04;;;;;;;17.38;4.60;;;10.40;99.90;;;10.63;76.37;100829.22;4817492;29;20143;-77
2023/12/30 01:01:34;;;;;;;11.07;4.72;;;10.40;99.90;;;10.70;75.97;100822.16;4803430;29;20043;-77
2023/12/30 01:04:02;;;;;;;14.57;5.18;;;10.50;99.90;;;10.70;75.25;100830.09;4806186;29;20046;-77
2023/12/30 01:06:31;;;;;;;17.40;5.35;;;10.50;99.90;;;10.73;75.39;100830.94;4807247;29;20100;-77
2023/12/30 01:09:00;;;;;;;13.27;4.70;;;10.50;99.90;;;10.81;75.24;100829.13;4820722;29;20094;-77
2023/12/30 01:11:29;;;;;;;17.08;5.03;;;10.60;99.90;;;10.70;74.48;100825.66;4807461;29;20107;-77
2023/12/30 01:13:58;;;;;;;14.63;4.72;;;10.60;99.90;;;10.73;74.46;100820.38;4806835;29;20139;-77
2023/12/30 01:16:27;;;;;;;23.23;5.47;;;10.60;99.90;;;10.79;74.66;100835.31;4820615;29;20061;-77
2023/12/30 01:18:55;;;;;;;18.75;5.15;;;10.60;99.90;;;10.77;74.74;100835.34;4820768;29;20057;-77
2023/12/30 01:21:24;;;;;;;19.27;5.13;;;10.60;99.90;;;10.62;74.93;100834.53;4805637;29;20053;-77
2023/12/30 01:23:53;;;;;;;11.10;4.63;;;10.40;99.90;;;10.71;75.10;100821.25;4806822;29;20058;-77
2023/12/30 01:26:21;;;;;;;14.40;4.53;;;10.50;99.90;;;10.63;75.14;100836.28;4806641;29;20047;-77
2023/12/30 01:28:50;;;;;;;13.52;5.10;;;10.50;99.90;;;10.63;74.97;100838.91;4805528;29;20058;-77
2023/12/30 01:31:20;;;;;;;18.88;5.13;;;10.40;99.90;;;10.62;74.83;100842.47;4820141;29;20488;-77
2023/12/30 01:33:48;;;;;;;14.10;5.18;;;10.40;99.90;;;10.52;74.87;100843.41;4806708;29;20074;-77
2023/12/30 01:36:17;;;;;;;13.73;4.72;;;10.40;99.90;;;10.60;74.70;100846.88;4820449;29;20061;-77
2023/12/30 01:38:45;;;;;;;14.45;4.82;;;10.40;99.90;;;10.64;74.67;100844.22;4806573;29;20047;-77
2023/12/30 01:41:13;;;;;;;15.07;4.50;;;10.50;99.90;;;10.68;75.05;100840.66;4806457;29;20050;-77
2023/12/30 01:43:42;;;;;;;17.73;4.43;;;10.50;99.90;;;10.72;75.01;100854.78;4806284;29;20051;-77
2023/12/30 01:46:13;;;;;;;14.80;4.40;;;10.60;99.90;;;10.62;75.89;100853.94;4806538;29;20125;-77
2023/12/30 01:48:43;;;;;;;12.90;4.90;;;10.50;99.90;;;10.64;76.25;100857.47;4806501;29;20078;-77
2023/12/30 01:51:14;;;;;;;14.50;5.45;;;10.40;99.90;;;10.80;76.13;100858.25;4806275;29;20046;-77
2023/12/30 01:53:54;;;;;;;13.82;4.95;;;10.60;99.90;;;10.74;76.03;100868.88;4805020;29;20137;-77
2023/12/30 01:56:24;;;;;;;15.38;4.75;;;10.60;99.90;;;10.69;76.30;100868.88;4806143;29;20070;-77
2023/12/30 01:58:53;;;;;;;13.57;5.00;;;10.50;99.90;;;10.76;76.22;100875.88;4805184;29;20059;-77
2023/12/30 02:01:22;;;;;;;17.42;5.55;;;10.50;99.90;;;10.71;76.16;100879.44;4806228;29;20047;-77
2023/12/30 02:03:53;;;;;;;15.25;5.10;;;10.60;99.90;;;10.70;76.36;100880.34;4819975;29;20419;-77
2023/12/30 02:06:22;;;;;;;15.98;5.05;;;10.50;99.90;;;10.66;76.40;100878.59;4806325;29;20046;-77
2023/12/30 02:08:51;;;;;;;13.52;4.57;;;10.40;99.90;;;10.73;75.89;100882.97;4804846;29;20138;-77
2023/12/30 02:11:20;;;;;;;13.15;4.72;;;10.50;99.90;;;10.68;75.83;100888.25;4820011;29;20111;-77
2023/12/30 02:13:49;;;;;;;14.70;4.90;;;10.50;99.90;;;10.74;75.35;100879.44;4805423;29;20455;-77
2023/12/30 02:16:17;;;;;;;16.00;5.15;;;10.60;99.90;;;10.70;75.40;100872.41;4805518;29;20364;-77
2023/12/30 02:18:46;;;;;;;20.17;5.60;;;10.50;99.90;;;10.47;74.84;100832.81;4819589;29;20043;-77
2023/12/30 02:21:16;;;;;;;14.25;4.40;;;10.60;99.90;;;10.78;74.86;100886.47;4819730;29;20106;-77
2023/12/30 02:23:53;;;;;;;21.03;5.57;;;10.60;99.90;;;10.77;74.30;100884.72;4805878;29;20043;-77
2023/12/30 02:26:22;;;;;;;18.58;5.13;;;10.60;99.90;;;10.79;74.66;100906.75;4805874;29;20071;-77
2023/12/30 02:28:50;;;;;;;12.55;4.70;;;10.60;99.90;;;10.67;74.77;100907.69;4805708;29;20447;-77
2023/12/30 02:31:19;;;;;;;17.63;5.10;;;10.50;99.90;;;10.63;75.03;100912.97;4805706;29;20082;-77
2023/12/30 02:33:47;;;;;;;17.77;5.10;;;10.40;99.90;;;10.63;74.71;100905.03;4819332;29;20051;-77
2023/12/30 02:36:15;;;;;;;16.15;6.00;;;10.50;99.90;;;10.68;74.25;100916.50;4805399;29;20513;-77
2023/12/30 02:38:45;;;;;;;12.48;4.65;;;10.50;99.90;;;10.68;74.28;100913.88;4819772;29;20062;-77
2023/12/30 02:41:14;;;;;;;16.67;5.05;;;10.50;99.90;;;10.70;74.28;100907.66;4805485;29;20047;-77
2023/12/30 02:43:54;;;;;;;12.93;4.88;;;10.50;99.90;;;10.79;74.03;100904.09;4805402;29;20054;-77
2023/12/30 02:46:22;;;;;;;13.95;5.07;;;10.50;99.90;;;10.74;73.67;100909.41;4805301;29;20046;-77
2023/12/30 02:48:51;;;;;;;17.00;5.30;;;10.50;99.90;;;10.81;73.73;100897.03;4805560;29;20051;-77
2023/12/30 02:51:20;;;;;;;19.15;5.38;;;10.60;99.90;;;10.77;73.93;100913.81;4819214;29;20055;-77
2023/12/30 02:53:50;;;;;;;12.10;5.00;;;10.60;99.90;;;10.82;74.13;100909.38;4805329;29;20107;-77
2023/12/30 02:56:20;;;;;;;13.93;4.73;;;10.60;99.90;;;10.78;74.19;100908.50;4805217;29;20497;-77
2023/12/30 02:58:52;;;;;;;12.80;5.10;;;10.60;99.90;;;10.69;74.19;100890.03;4803835;29;20497;-77
2023/12/30 03:01:21;;;;;;;13.55;5.30;;;10.60;99.90;;;10.65;74.02;100890.94;4805248;29;20043;-77
2023/12/30 03:03:49;;;;;;;11.10;4.93;;;10.50;99.90;;;10.71;74.29;100909.44;4805268;29;20047;-77
2023/12/30 03:06:17;;;;;;;13.75;4.75;;;10.50;99.90;;;10.67;74.30;100915.63;4804977;29;20112;-77
2023/12/30 03:08:46;;;;;;;17.58;6.30;;;10.50;99.90;;;10.70;74.45;100902.38;4804967;29;20121;-77
2023/12/30 03:11:16;;;;;;;14.20;5.07;;;10.50;99.90;;;10.70;74.34;100904.16;4818845;29;20074;-77
2023/12/30 03:13:44;;;;;;;12.73;4.72;;;10.50;99.90;;;10.61;73.98;100899.78;4804961;29;20680;-77
2023/12/30 03:16:14;;;;;;;15.13;4.70;;;10.50;99.90;;;10.66;73.95;100905.06;4804848;29;20051;-77
2023/12/30 03:18:43;;;;;;;17.00;5.40;;;10.50;99.90;;;10.69;74.17;100923.53;4818872;29;20051;-77
2023/12/30 03:21:14;;;;;;;19.90;5.20;;;10.50;99.90;;;10.59;73.91;100908.59;4818736;29;20073;-77
2023/12/30 03:23:43;;;;;;;19.67;5.60;;;10.50;99.90;;;10.70;74.41;100925.31;4804813;29;20059;-77
2023/12/30 03:26:11;;;;;;;12.23;4.93;;;10.50;99.90;;;10.66;74.55;100916.53;4818672;29;20085;-77
2023/12/30 03:28:42;;;;;;;13.15;4.60;;;10.50;99.90;;;10.64;75.01;100922.69;4804830;29;20082;-78
2023/12/30 03:31:22;;;;;;;13.18;4.35;;;10.40;99.90;;;10.60;75.09;100910.38;4804400;29;20066;-77
2023/12/30 03:33:51;;;;;;;19.05;5.03;;;10.40;99.90;;;10.61;75.14;100912.09;4804643;29;20057;-77
2023/12/30 03:36:20;;;;;;;18.20;5.47;;;10.50;99.90;;;10.61;75.14;100930.63;4804522;29;20053;-77
2023/12/30 03:38:49;;;;;;;12.02;4.35;;;10.40;99.90;;;10.49;74.95;100899.81;4804797;29;20051;-77
2023/12/30 03:41:18;;;;;;;21.65;4.82;;;10.50;99.90;;;10.72;74.44;100924.41;4804573;29;20046;-77
2023/12/30 03:43:48;;;;;;;18.55;5.20;;;10.50;99.90;;;10.70;74.63;100917.38;4804578;29;20051;-77
2023/12/30 03:46:17;;;;;;;14.48;5.22;;;10.50;99.90;;;10.74;74.58;100922.63;4818327;29;20054;-77
2023/12/30 03:48:45;;;;;;;14.23;4.82;;;10.50;99.90;;;10.66;74.69;100913.00;4804257;29;20528;-77
2023/12/30 03:51:14;;;;;;;14.90;5.10;;;10.40;99.90;;;10.71;74.21;100922.66;4818372;29;20121;-77
2023/12/30 03:53:42;;;;;;;12.70;5.00;;;10.50;99.90;;;10.75;74.18;100924.41;4804227;29;20675;-77
2023/12/30 03:56:11;;;;;;;15.75;4.88;;;10.50;99.90;;;10.66;74.05;100923.56;4818212;29;20082;-77
2023/12/30 03:58:40;;;;;;;21.73;4.95;;;10.50;99.90;;;10.61;74.32;100925.34;4802951;29;20054;-77
2023/12/30 04:01:10;;;;;;;19.70;5.95;;;10.40;99.90;;;10.69;74.55;100929.72;4804114;29;20126;-77
2023/12/30 04:03:39;;;;;;;16.65;5.13;;;10.40;99.90;;;10.66;74.68;100929.75;4804072;29;20645;-77
2023/12/30 04:06:08;;;;;;;15.95;4.63;;;10.50;99.90;;;10.78;74.63;100928.81;4818175;29;20047;-77
2023/12/30 04:08:36;;;;;;;15.90;4.97;;;10.50;99.90;;;10.74;74.36;100927.06;4817241;29;20141;-77
2023/12/30 04:11:05;;;;;;;12.07;4.88;;;10.50;99.90;;;10.63;74.45;100931.50;4803866;29;20050;-77
2023/12/30 04:13:33;;;;;;;20.55;5.45;;;10.40;99.90;;;10.65;74.65;100932.38;4803916;29;20038;-77
2023/12/30 04:16:02;;;;;;;14.82;4.65;;;10.40;99.90;;;10.59;75.03;100929.75;4817968;29;20051;-77
2023/12/30 04:18:32;;;;;;;13.38;4.47;;;10.40;99.90;;;10.66;75.21;100927.09;4818031;29;20119;-77
2023/12/30 04:21:00;;;;;;;14.85;4.63;;;10.40;99.90;;;10.62;75.22;100921.81;4817974;29;20153;-77
2023/12/30 04:23:28;;;;;;;16.08;5.15;;;10.50;99.90;;;10.49;75.12;100931.53;4802559;29;20054;-77
2023/12/30 04:25:56;;;;;;;14.65;4.90;;;10.30;99.90;;;10.50;74.89;100921.84;4804066;29;20455;-77
2023/12/30 04:28:24;;;;;;;18.70;5.05;;;10.30;99.90;;;10.55;74.88;100925.38;4803872;29;20046;-77
2023/12/30 04:30:53;;;;;;;15.55;4.60;;;10.30;99.90;;;10.41;75.15;100930.72;4817648;29;20133;-77
2023/12/30 04:33:21;;;;;;;17.23;4.80;;;10.20;99.90;;;10.36;74.73;100935.13;4803823;29;20057;-77
2023/12/30 04:35:51;;;;;;;16.85;4.30;;;10.20;99.90;;;10.52;74.39;100941.25;4803851;29;20047;-77
2023/12/30 04:38:20;;;;;;;9.40;4.57;;;10.30;99.90;;;10.46;74.23;100938.63;4807499;29;20054;-77
2023/12/30 04:40:50;;;;;;;13.30;5.07;;;10.20;99.90;;;10.43;74.52;100946.56;4809920;29;20060;-77
2023/12/30 04:43:18;;;;;;;12.88;4.65;;;10.20;99.90;;;10.42;74.75;100956.25;4823435;29;20126;-77
2023/12/30 04:45:47;;;;;;;12.48;4.32;;;10.20;99.90;;;10.43;75.14;100942.13;4823724;29;20111;-77
2023/12/30 04:48:15;;;;;;;16.40;5.30;;;10.20;99.90;;;10.49;74.79;100944.78;4823571;29;20428;-77
2023/12/30 04:50:44;;;;;;;13.77;4.80;;;10.30;99.90;;;10.43;75.21;100938.63;4823493;29;20050;-77
2023/12/30 04:53:15;;;;;;;13.07;4.60;;;10.20;99.90;;;10.36;75.88;100947.44;4808341;29;20093;-77
2023/12/30 04:55:43;;;;;;;12.97;4.90;;;10.20;99.90;;;10.42;75.96;100950.09;4823304;29;20699;-77
2023/12/30 04:58:12;;;;;;;17.35;5.60;;;10.20;99.90;;;10.45;75.54;100952.72;4809697;29;20380;-77
2023/12/30 05:00:40;;;;;;;18.30;4.82;;;10.20;99.90;;;10.52;75.52;100960.66;4809813;29;20061;-77
2023/12/30 05:03:09;;;;;;;10.98;4.93;;;10.30;99.90;;;10.52;75.29;100962.41;4809408;29;20046;-77
2023/12/30 05:05:37;;;;;;;13.48;4.78;;;10.40;99.90;;;10.53;75.66;100950.97;4809470;29;20509;-77
2023/12/30 05:08:08;;;;;;;15.60;4.57;;;10.30;99.90;;;10.60;75.31;100956.22;4809415;29;20129;-77
2023/12/30 05:10:37;;;;;;;11.80;4.35;;;10.40;99.90;;;10.64;75.16;100957.09;4809504;29;20470;-77
2023/12/30 05:13:06;;;;;;;10.80;4.47;;;10.50;99.90;;;10.64;75.19;100957.09;4808224;29;20556;-77
2023/12/30 05:15:35;;;;;;;10.50;4.22;;;10.40;99.90;;;10.62;75.25;100956.22;4809514;29;20070;-77
2023/12/30 05:18:04;;;;;;;13.90;4.63;;;10.40;99.90;;;10.61;74.60;100952.66;4809324;29;20496;-77
2023/12/30 05:20:33;;;;;;;14.57;4.55;;;10.40;99.90;;;10.56;74.52;100956.22;4809298;29;20520;-77
2023/12/30 05:23:01;;;;;;;13.88;4.38;;;10.40;99.90;;;10.55;74.35;100960.63;4809244;29;20055;-77
2023/12/30 05:25:31;;;;;;;17.42;4.70;;;10.40;99.90;;;10.64;74.13;100962.38;4809509;29;20071;-77
2023/12/30 05:28:01;;;;;;;12.95;4.50;;;10.40;99.90;;;10.60;74.39;100956.22;4809445;29;20500;-77
2023/12/30 05:30:30;;;;;;;17.70;5.00;;;10.50;99.90;;;10.62;74.16;100967.69;4809379;29;20116;-77
2023/12/30 05:32:58;;;;;;;14.98;4.45;;;10.50;99.90;;;10.61;74.62;100968.53;4809183;29;20062;-78
2023/12/30 05:35:27;;;;;;;14.10;5.55;;;10.40;99.90;;;10.65;74.25;100980.88;4809165;29;20046;-77
2023/12/30 05:37:55;;;;;;;11.07;4.65;;;10.40;99.90;;;10.65;73.99;100972.94;4809125;29;20671;-77
2023/12/30 05:40:24;;;;;;;16.40;5.07;;;10.50;99.90;;;10.68;74.45;100977.34;4809291;29;20144;-77
2023/12/30 05:42:52;;;;;;;14.10;4.82;;;10.40;99.90;;;10.65;74.40;100966.75;4807969;29;20687;-77
2023/12/30 05:45:22;;;;;;;13.07;4.55;;;10.50;99.90;;;10.70;73.97;100971.16;4808055;29;20507;-77
2023/12/30 05:47:50;;;;;;;11.67;5.00;;;10.40;99.90;;;10.64;73.86;100978.25;4809100;29;20466;-77
2023/12/30 05:50:19;;;;;;;15.65;5.00;;;10.40;99.90;;;10.66;73.47;100979.13;4805567;29;20076;-77
2023/12/30 05:52:48;;;;;;;19.15;5.97;;;10.40;99.90;;;10.68;73.37;100982.63;4806738;29;20054;-77
2023/12/30 05:55:16;;;;;;;17.92;5.07;;;10.40;99.90;;;10.63;73.88;100977.34;4806370;29;20130;-77
2023/12/30 05:57:46;;;;;;;12.30;4.70;;;10.40;99.90;;;10.61;73.52;100976.47;4806131;29;20046;-77
2023/12/30 06:00:19;;;;;;;10.05;4.55;;;10.40;99.90;;;10.58;73.46;100959.75;4806071;29;20054;-77
2023/12/30 06:02:49;;;;;;;12.90;4.25;;;10.50;99.90;;;10.69;73.50;100990.56;4806210;29;20045;-77
2023/12/30 06:05:18;;;;;;;15.80;5.38;;;10.50;99.90;;;10.68;73.91;100990.56;4806141;29;20047;-77
2023/12/30 06:07:46;;;;;;;9.27;4.28;;;10.50;99.90;;;10.69;74.24;101000.25;4819856;29;20050;-77
2023/12/30 06:10:15;;;;;;;15.88;4.63;;;10.50;99.90;;;10.67;74.81;101000.28;4806021;29;20405;-77
2023/12/30 06:12:43;;;;;;;14.52;4.60;;;10.50;99.90;;;10.74;75.41;100993.22;4806283;29;20647;-77
2023/12/30 06:15:12;;;;;;;16.58;4.80;;;10.50;99.90;;;10.71;76.10;100998.50;4805890;29;20039;-77
2023/12/30 06:17:40;;;;;;;13.32;4.75;;;10.50;99.90;;;10.64;76.41;100984.41;4806040;29;20065;-77
2023/12/30 06:20:12;;;;;;;14.98;4.93;;;10.50;99.90;;;10.63;76.75;100993.22;4805804;29;20047;-77
2023/12/30 06:22:40;;;;;;;17.48;5.50;;;10.40;99.90;;;10.75;76.92;100995.84;4805925;29;20047;-77
2023/12/30 06:25:09;;;;;;;18.00;4.53;;;10.50;99.90;;;10.79;77.02;100996.72;4805749;29;20038;-77
2023/12/30 06:27:38;;;;;;;11.18;4.43;;;10.50;99.90;;;10.85;76.67;100988.75;4805674;29;20047;-77
2023/12/30 06:30:08;;;;;;;15.98;4.50;;;10.60;99.90;;;10.84;76.93;101000.19;4805575;29;20047;-77
2023/12/30 06:32:36;;;;;;;15.40;4.95;;;10.60;99.90;;;10.94;77.17;100988.69;4805656;29;20067;-77
2023/12/30 06:35:06;;;;;;;13.32;4.88;;;10.70;99.90;;;10.78;78.10;100976.44;4805619;29;20051;-77
2023/12/30 06:37:36;;;;;;;11.48;4.75;;;10.70;99.90;;;10.87;78.76;100998.44;4805719;29;20075;-77
2023/12/30 06:40:05;;;;;;;14.63;5.17;;;10.60;99.90;;;10.94;78.60;101004.59;4805455;29;20533;-77
2023/12/30 06:42:34;;;;;;;17.65;4.60;;;10.70;99.90;;;10.94;78.50;100987.84;4805680;29;20356;-78
2023/12/30 06:45:02;;;;;;;16.15;5.28;;;10.70;99.90;;;10.97;78.37;101004.59;4805372;29;20053;-77
2023/12/30 06:47:31;;;;;;;13.23;4.72;;;10.70;99.90;;;10.96;78.24;100997.53;4805372;29;20059;-77
2023/12/30 06:49:59;;;;;;;17.70;5.32;;;10.70;99.90;;;10.95;78.29;100990.47;4805281;29;20124;-77
2023/12/30 06:52:28;;;;;;;17.67;4.80;;;10.70;99.90;;;10.96;78.50;100983.41;4805200;29;20051;-78
2023/12/30 06:54:57;;;;;;;16.55;4.95;;;10.70;99.90;;;11.07;78.52;100995.69;4804248;29;20115;-78
2023/12/30 06:57:42;;;;;;;13.52;5.07;;;10.80;99.90;;;11.08;78.62;100980.69;4804063;29;20053;-78
2023/12/30 07:00:11;;;;;;;15.50;4.60;;;10.80;99.90;;;10.95;78.81;100979.91;4805321;29;20050;-78
2023/12/30 07:02:41;;;;;;;17.38;4.72;;;10.70;99.90;;;10.91;79.61;100983.44;4805075;29;20062;-77
2023/12/30 07:05:10;;;;;;;15.05;4.68;;;10.70;99.90;;;10.95;79.63;100981.66;4805049;29;20078;-77
2023/12/30 07:07:38;;;;;;;15.00;4.80;;;10.70;99.90;;;10.87;80.03;100984.34;4805057;29;20140;-78
2023/12/30 07:10:09;;;;;;;13.00;5.45;;;10.60;99.90;;;10.82;80.42;100976.41;4804956;29;20058;-77
2023/12/30 07:12:38;;;;;;;15.57;5.10;;;10.60;99.90;;;11.08;79.81;100991.28;4803649;29;20051;-77
2023/12/30 07:15:07;;;;;;;15.52;4.97;;;10.70;99.90;;;11.04;80.09;100992.19;4804828;29;20556;-77
2023/12/30 07:17:36;;;;;;;17.90;5.60;;;10.70;99.90;;;11.00;80.32;100999.28;4804565;29;20137;-78
2023/12/30 07:20:07;;;;;;;18.48;4.95;;;10.70;99.90;;;11.04;80.50;101006.31;4804989;29;20054;-78
2023/12/30 07:22:36;;;;;;;12.00;4.50;;;10.70;99.90;;;11.03;80.63;101007.22;4804821;29;20055;-77
2023/12/30 07:25:06;;;;;;;15.27;4.97;;;10.70;99.90;;;10.98;80.67;101005.44;4804658;29;20073;-76
2023/12/30 07:27:36;;;;;;;17.95;5.20;;;10.70;99.90;;;11.08;80.68;101008.06;4818675;29;20127;-75
2023/12/30 07:30:06;;;;;;;14.05;5.15;;;10.70;99.90;;;11.06;80.47;101006.31;4804309;29;20055;-76
2023/12/30 07:32:35;;;;;;;13.63;4.82;;;10.70;99.90;;;10.96;80.60;101013.41;4818682;29;20491;-75
2023/12/30 07:35:05;;;;;;;12.93;4.43;;;10.70;99.90;;;10.91;80.94;101020.50;4804648;29;20131;-75
2023/12/30 07:37:34;;;;;;;12.73;4.75;;;10.70;99.90;;;10.88;81.33;101016.06;4804382;29;20050;-75
2023/12/30 07:40:05;;;;;;;15.25;4.95;;;10.60;99.90;;;10.80;81.52;101027.59;4804407;29;20051;-75
2023/12/30 07:42:37;;;;;;;21.35;5.65;;;10.50;99.90;;;10.69;82.35;101024.06;4804432;29;20049;-76
2023/12/30 07:45:07;;;;;;;16.70;5.47;;;10.40;99.90;;;10.70;82.80;101029.34;4804324;29;20105;-75
2023/12/30 07:47:36;;;;;;;16.33;5.10;;;10.40;99.90;;;10.68;83.23;101031.13;4804503;29;20112;-75
2023/12/30 07:50:07;;;;;;;23.90;5.40;;;10.40;99.90;;;10.70;83.61;101033.78;4804470;29;20296;-75
2023/12/30 07:52:36;;;;;;;15.25;5.05;;;10.40;99.90;;;10.76;83.83;101039.06;4804536;29;20046;-76
2023/12/30 07:55:05;;;;;;;21.70;5.55;;;10.40;99.90;;;10.74;83.84;101044.31;4818085;29;20047;-76
2023/12/30 07:57:35;;;;;;;18.48;5.75;;;10.40;99.90;;;10.59;83.93;101012.63;4804293;29;20047;-75
2023/12/30 08:00:08;;;;;;;16.58;6.28;;;10.40;99.90;;;10.66;84.13;101024.09;4802998;29;20142;-74
2023/12/30 08:02:41;;;;;;;13.27;5.22;;;10.40;99.90;;;10.74;84.52;101048.75;4804064;29;20126;-75
2023/12/30 08:05:09;;;;;;;16.23;5.80;;;10.50;99.90;;;10.63;85.12;101039.94;4804036;29;20155;-78
2023/12/30 08:07:38;;;;;;;15.75;5.80;;;10.40;99.90;;;10.58;85.71;101047.03;4802642;29;20042;-79
2023/12/30 08:10:08;;;;;;;19.08;5.40;;;10.30;99.90;;;10.58;86.16;101055.84;4804143;29;20093;-82
2023/12/30 08:12:36;;;;;;;20.80;5.80;;;10.30;99.90;;;10.53;86.87;101054.09;4817501;29;20058;-79
2023/12/30 08:15:10;;;;;;;20.88;6.78;;;10.20;99.90;;;10.48;87.54;101077.91;4803945;29;20059;-80
2023/12/30 08:17:39;;;;;;;16.10;5.70;;;10.20;99.90;;;10.42;87.71;101038.22;4803865;29;20047;-83
2023/12/30 08:20:11;;;;;;;22.15;5.72;;;10.20;99.90;;;10.41;88.06;101047.06;4803697;29;20043;-81
2023/12/30 08:22:41;;;;;;;17.25;5.57;;;10.20;99.90;;;10.35;88.86;101052.34;4803755;29;20119;-80
2023/12/30 08:25:10;;;;;;;16.98;6.20;;;10.10;99.90;;;10.38;89.34;101052.34;4803961;29;20061;-80
2023/12/30 08:27:38;;;;;;;17.27;4.95;;;10.10;99.90;;;10.43;89.72;101057.63;4803826;29;20131;-80
2023/12/30 08:30:11;;;;;;;17.70;5.80;;;10.10;99.90;;;10.39;89.78;101062.03;4803448;29;20112;-80
2023/12/30 08:32:39;;;;;;;14.63;6.05;;;10.10;99.90;;;10.35;90.28;101054.09;4803575;29;20050;-82
2023/12/30 08:35:10;;;;;;;22.30;5.88;;;10.10;99.90;;;10.20;91.05;101027.69;4803691;29;20047;-88
2023/12/30 08:37:38;;;;;;;20.45;5.68;;;10.20;99.90;;;10.36;91.30;101055.84;4803573;29;20053;-81
2023/12/30 08:40:10;;;;;;;15.10;5.28;;;10.20;99.90;;;10.37;91.91;101065.56;4803606;29;20050;-80
2023/12/30 08:42:39;;;;;;;19.90;5.85;;;10.10;99.90;;;10.40;92.18;101066.44;4804016;29;20054;-84
2023/12/30 08:45:17;;;;;;;18.05;5.50;;;10.10;99.90;;;10.38;92.33;101062.03;4803585;29;20449;-83
2023/12/30 08:47:46;;;;;;;16.30;5.18;;;10.10;99.90;;;10.40;92.62;101068.19;4803577;29;20485;-80
2023/12/30 08:50:15;;;;;;;19.30;5.47;;;10.20;99.90;;;10.41;92.23;101068.22;4803769;29;20577;-80
2023/12/30 08:52:43;;;;;;;17.35;5.43;;;10.20;99.90;;;10.49;92.56;101066.41;4803649;29;20066;-78
2023/12/30 08:55:12;;;;;;;17.45;5.40;;;10.20;99.90;;;10.55;92.50;101066.41;4803847;29;20055;-81
2023/12/30 08:57:43;;;;;;;14.35;5.53;;;10.30;99.90;;;10.60;92.48;101077.00;4803308;29;20222;-80
2023/12/30 09:00:15;;;;;;;18.60;5.53;;;10.30;99.90;;;10.67;92.24;101065.50;4803477;29;20050;-78
2023/12/30 09:02:47;;;;;;;15.98;5.22;;;10.40;99.90;;;10.73;92.19;101068.16;4803355;29;20061;-81
2023/12/30 09:05:18;;;;;;;19.08;5.97;;;10.40;99.90;;;10.61;92.24;101041.72;4803511;29;20051;-78
2023/12/30 09:07:49;;;;;;;;;;;10.40;99.90;;;10.74;92.14;101069.94;4803890;29;20058;-80
2023/12/30 09:10:20;;;;;;;20.15;6.45;;;10.50;99.90;;;10.84;92.37;101069.00;4802145;29;19933;-77
2023/12/30 09:12:49;;;;;;;19.73;6.97;;;10.60;99.90;;;10.97;92.00;101070.75;4803734;29;20054;-75
2023/12/30 09:15:18;;;;;;;18.58;6.10;;;10.70;99.90;;;11.02;91.64;101071.59;4817683;29;20058;-77
2023/12/30 09:17:47;;;;;;;18.70;6.47;;;10.70;99.90;;;11.00;91.17;101078.66;4803568;29;20136;-77
2023/12/30 09:20:16;;;;;;;18.27;5.32;;;10.80;99.90;;;11.06;90.43;101083.94;4803408;29;20043;-74
2023/12/30 09:22:44;;;;;;;22.95;5.88;;;10.80;99.90;;;11.10;90.28;101079.53;4803230;29;20073;-78
2023/12/30 09:25:13;;;;;;;24.85;6.07;;;10.80;99.90;;;11.11;89.72;101076.00;4820134;29;20547;-77
2023/12/30 09:27:42;;;;;;;21.20;6.10;;;10.80;99.90;;;10.84;89.54;101039.91;4806476;29;20043;-78
2023/12/30 09:30:11;;;;;;;15.05;5.38;;;10.80;99.90;;;11.04;89.60;101085.72;4806660;29;20053;-83
2023/12/30 09:32:41;;;;;;;22.00;5.50;;;10.80;99.90;;;10.98;89.74;101079.56;4806539;29;20066;-83
2023/12/30 09:35:10;;;;;;;16.85;5.65;;;10.80;99.90;;;10.89;89.40;101062.84;4806507;29;20141;-83
2023/12/30 09:37:38;;;;;;;19.70;5.50;;;10.80;99.90;;;11.04;89.73;101100.72;4806966;29;20078;-84
2023/12/30 09:40:09;;;;;;;23.55;6.28;;;10.70;99.90;;;10.93;89.73;101087.53;4820031;29;20086;-83
2023/12/30 09:42:38;;;;;;;19.05;5.88;;;10.80;99.90;;;11.08;90.00;101108.66;4806584;29;20051;-83
2023/12/30 09:45:08;;;;;;;18.40;6.20;;;10.80;99.90;;;11.04;89.72;101114.84;4819880;29;20070;-82
2023/12/30 09:47:39;;;;;;;25.55;6.25;;;10.80;99.90;;;11.04;89.82;101101.59;4806257;29;20091;-80
2023/12/30 09:50:10;;;;;;;21.27;5.75;;;10.80;99.90;;;11.00;90.21;101110.44;4806233;29;20061;-80
2023/12/30 09:52:38;;;;;;;16.95;5.55;;;10.70;99.90;;;10.85;90.32;101110.47;4806429;29;20051;-83
2023/12/30 09:55:07;;;;;;;19.27;5.13;;;10.70;99.90;;;10.89;90.93;101118.41;4806525;29;20058;-82
2023/12/30 09:57:39;;;;;;;21.27;6.25;;;10.60;99.90;;;10.84;91.26;101116.63;4806190;29;20051;-82
2023/12/30 10:00:09;;;;;;;20.70;6.70;;;10.60;99.90;;;10.88;91.50;101115.75;4806130;29;20059;-80
2023/12/30 10:02:38;;;;;;;;;;;10.60;99.90;;;10.91;91.80;101118.41;4806697;29;20054;-78
2023/12/30 10:05:09;;;;;;;20.20;5.70;;;10.60;99.90;;;10.83;91.91;101106.94;4806024;29;19925;-79
2023/12/30 10:07:37;;;;;;;21.73;6.15;;;10.60;99.90;;;10.83;92.34;101121.06;4806207;29;20066;-78
2023/12/30 10:10:08;;;;;;;22.52;6.93;;;10.60;99.90;;;10.91;92.66;101123.69;4805967;29;20145;-80
2023/12/30 10:12:36;;;;;;;24.10;6.25;;;10.60;99.90;;;10.94;92.33;101118.38;4806368;29;20057;-79
2023/12/30 10:15:06;;;;;;;22.70;6.13;;;10.70;99.90;;;10.96;92.60;101124.56;4805753;29;20054;-76
2023/12/30 10:17:35;;;;;;;20.60;6.10;;;10.70;99.90;;;11.00;92.83;101114.84;4806377;29;20062;-77